Kernville, CA

2:00 AM PDT on August 30, 2015 (GMT -0700)
RAWS | | Change Station
CLOSE
Current Station
Personal Weather Station
Location: Kernville, CA
Elevation: 3043 ft
Nearby Weather Stations

Elev 3043 ft 35.78 °N, 118.43 °W | Updated 1 hour ago

Clear
Clear
77.0 °F
Feels Like 77.0 °F
N
10.0
Wind Variable Wind from ESE
Gusts 15.0 mph

Today
High -- | Low -- °F
--% Chance of Precip.
Yesterday
High -- | Low -- °F
Precip. -- in
6:24 AM 7:24 PM
Waxing Gibbous, 99% visible
Pressure 29.80 in
Visibility 10.0 miles
Clouds Clear
Dew Point 49.0 °F
Humidity 38%
Rainfall in
Snow Depth Not available.
UV 0 out of 12
Pollen 7.90 out of 12
Air Quality Not available.
Flu Activity Not available.
METAR KNID 300856Z AUTO 17009KT 10SM CLR 26/07 A2988 RMK AO2 SLP090 T02610067 52002 $
Pressure 29.80 in
Visibility 10.0 miles
Clouds Clear
Dew Point 49.0 °F
Humidity 38%
Rainfall in
Snow Depth Not available.
UV 0 out of 12
Pollen 7.90 out of 12
Air Quality Not available.
Flu Activity Not available.
METAR KNID 300856Z AUTO 17009KT 10SM CLR 26/07 A2988 RMK AO2 SLP090 T02610067 52002 $

10-Day Weather Forecast

×

Almanac

Astronomy

Aug. 30, 2015 Rise Set
Actual Time
Civil Twilight
Nautical Twilight
Astronomical Twilight
Moon
Length of Visible Light
Length of Day
Tomorrow will be .
, % of the Moon is Illuminated

Today's Extremes

State Highs State Lows

Community

WunderPhotos

Upload Photos

1,850,909 photos uploaded!

WunderBlogs® & News

Nearby

Air Quality

  Air Quality AQ Index Pollutant
Not available.

Snow Depth

Station Depth Elevation

Earthquake Activity

City Distance Mag. Time & Date
Minimum magnitude displayed is 2.5.

Coastal Water Temperatures

Place Temperature

Stations

Nearby Weather Stations

Station Location Temp. Windchill Dew Point Humidity Wind Precip. Elev Updated Type